WEATHER DATA

YESTERDAY
Time Temp. Dewp. Hum. Wind dir Wind speed Wind gust Bar.
00:03 12.3 8.4 77 168 0.3 0.6 1014.7
00:13 12.4 8.5 77 175 0.3 0.6 1014.7
00:22 12.4 8.5 77 170 0.3 0.6 1014.7
00:32 12.4 8.5 77 90 0.3 0.6 1014.6
00:43 12.2 8.5 78 0 0.3 1014.6
00:53 12 8.3 78 230 0.3 0.8 1014.5
01:03 12 8.3 78 206 0.6 1.4 1014.5
01:13 11.9 8.4 79 0 0.3 1014.4
01:23 11.7 8.6 81 0 0.6 1014.3
01:33 11.5 8.5 82 0 0.6 1014.2
01:43 11.4 8.4 82 0 0.3 1014.2
01:54 11.4 8.4 82 0 0.6 1014.2
02:04 11.3 8.3 82 0 0.3 1014.2
02:14 11.3 8.3 82 0 0.6 1014.1
02:24 11.3 8.3 82 56 0.3 0.6 1014
02:34 11.2 8.4 83 0 0.3 1014
02:44 11.1 8.1 82 0 0.6 1013.8
02:54 10.9 8 82 90 0.3 0.6 1013.8
03:05 10.8 8 83 0 0.3 1013.7
03:14 10.3 7.5 83 270 0.3 0.6 1013.7
03:24 9.9 7.5 85 248 0.6 0.8 1013.5
03:34 9.6 7.2 85 0 0.6 1013.4
03:45 9.4 7.2 86 0 0.6 1013.4
03:55 9.4 7.3 87 173 0.3 0.6 1013.2
04:05 9.2 6.8 85 221 0.3 0.8 1013.1
04:15 8.9 6.7 86 188 0.3 0.6 1013.2
04:25 8.9 6.9 87 0 0.6 1013.1
04:35 8.8 6.8 87 0 0.6 1013.2
04:56 8.7 6.5 86 0 0.6 1013
05:06 8.5 6.3 86 0 0.3 1012.9
05:15 8.4 6.4 87 0 0.6 1012.9
05:26 8.2 6 86 0 0.6 1012.9
05:36 8 6 87 0 0.3 1012.8
05:46 8.1 6.2 88 0 0.3 1012.7
05:55 8.2 6.3 88 194 0.3 0.6 1012.7
06:06 8.4 6.5 88 201 0.3 0.8 1012.8
06:16 8.3 6.3 87 270 0.3 0.6 1012.7
06:26 8.1 6.1 87 270 0.3 0.6 1012.6
06:36 8.1 6.2 88 0 0.3 1012.5
06:46 8.3 6.4 88 0 0.6 1012.5
06:56 8.4 6.5 88 0 0.3 1012.5
07:02 8.3 6.3 87 239 0.3 0.8 1012.6
07:12 8.4 6.5 88 192 0.3 0.6 1012.6
07:22 8.6 6.7 88 199 0.3 1.4 1012.7
07:32 8.9 7 88 0 0.6 1012.7
07:42 9.1 7.2 88 0 0.3 1012.7
07:52 9.2 7.2 87 0 0.3 1012.8
08:02 9.4 7.3 87 168 0.3 0.6 1012.9
08:11 9.6 7.4 86 0 0.6 1013
08:22 9.8 7.6 86 180 0.3 0.6 1012.8
08:32 10.2 8 86 206 0.3 0.6 1012.8
08:42 10.6 8.4 86 0 0.6 1013
08:52 10.8 8.2 84 90 0.3 0.6 1013
09:02 11.1 8.3 83 0 0.3 1013.1
09:12 11.5 8.4 81 191 0.3 0.6 1013.2
09:22 11.9 8.9 82 180 0.3 0.6 1013.3
09:33 12.5 9.3 81 90 0.3 0.8 1013.3
09:43 12.8 9.6 81 90 0.8 1.9 1013.3
09:53 13.1 10.1 82 90 0.6 0.8 1013.3
10:02 13.4 9.8 79 90 0.3 0.6 1013.4
10:13 13.9 9.9 77 90 0.3 0.6 1013.4
10:23 14.3 10.1 76 90 0.3 0.8 1013.5
10:33 14.3 10.1 76 66 0.6 0.8 1013.5
10:42 14.5 10.3 76 90 0.6 1.1 1013.4
10:52 14.6 10.2 75 234 0.3 0.6 1013.6
11:00 14.4 10 75 132 0.6 1.4 1013.6
11:10 14.6 10.4 76 185 0.8 1.9 1013.6
11:20 15.7 10.9 73 195 1.7 3.1 1013.7
11:30 16.2 10.9 71 143 0.6 0.8 1013.5
11:40 16.4 11.1 71 72 0.6 0.6 1013.6
11:50 16.8 11.1 69 72 0.6 0.6 1013.7
12:00 16.7 11 69 90 0.3 0.3 1013.7
12:11 16.7 11 69 45 0.3 0.6 1013.6
12:21 16.4 10.9 70 185 0.6 1.1 1013.5
12:30 16.4 10.9 70 185 0.6 1.1 1013.4
12:41 17.3 11.3 68 135 0.3 1.1 1013.4
12:51 17.7 11.5 67 216 1.7 3.1 1013.4
13:01 18.7 11.3 62 196 1.7 4.2 1013.4
13:11 18.4 11.2 63 175 0.6 1.7 1013.4
13:21 18 11.1 64 135 0.3 1.7 1013.3
13:37 18.2 10.8 62 135 0.8 1.7 1013.4
13:47 18.3 11.4 64 161 0.3 0.6 1013.2
13:57 19.3 11.8 62 216 1.9 3.6 1013.1
14:07 20 12 60 210 1.1 2.5 1013
14:17 19.1 11.9 63 142 0.6 1.9 1013
14:27 19.5 12.5 64 139 0.6 1.9 1012.8
14:38 19.2 12.2 64 128 0.8 1.9 1012.8
14:47 19 12.5 66 118 0.6 1.4 1012.8
14:57 19.1 12.6 66 149 0.8 1.7 1012.8
15:07 19.1 12.6 66 137 0.6 1.4 1012.8
15:18 19.1 12.6 66 143 0.8 1.9 1012.6
15:28 19.6 13.1 66 202 1.7 3.6 1012.6
15:38 19.1 12.8 67 146 1.1 3.1 1012.5
15:48 18.9 13.1 69 135 0.3 1.4 1012.6
15:58 18.8 13.2 70 139 1.4 2.5 1012.5
16:08 18.8 13.2 70 141 1.4 2.8 1012.5
16:18 18.7 13.1 70 129 0.8 1.7 1012.5
16:29 18.7 13.1 70 137 0.6 1.9 1012.4
16:38 18.8 13.4 71 145 0.8 1.9 1012.3
16:48 19 13.4 70 142 0.6 1.7 1012.2
17:05 19 13.4 70 152 0.8 1.9 1012.1
17:16 18.7 13.3 71 180 0.6 1.7 1012
17:25 18.5 13.4 72 184 0.6 1.7 1012
17:35 18.4 13.3 72 143 0.3 1.4 1012.1
17:45 18.1 13.4 74 90 1.7 5 1012.1
17:55 16.7 13 79 184 2.2 4.7 1012.1
18:05 16.2 13.1 82 40 2.2 4.2 1012.1
18:15 16 12.9 82 15 2.8 4.4 1012.2
18:26 15.8 12.5 81 13 3.9 5.8 1012.4
18:35 15.5 12.1 80 6 3.9 6.4 1012.4
18:45 15.2 12 81 6 2.5 3.6 1012.6
18:56 15 12 82 10 2.2 3.3 1012.6
19:06 14.9 12 83 10 2.5 3.6 1012.6
19:16 14.7 11.5 81 6 1.9 2.5 1012.6
19:26 14.5 11.3 81 357 1.7 2.5 1012.6
19:36 14.4 11.4 82 357 1.4 1.9 1012.6
19:46 14.3 11.5 83 353 1.4 1.9 1012.6
19:56 14.2 11.7 85 348 1.4 2.2 1012.7
20:07 14.1 11.8 86 337 1.4 1.9 1012.7
20:17 14 11.9 87 317 1.4 1.9 1012.7
20:26 14 11.7 86 315 1.4 2.2 1012.7
20:36 14.1 12 87 343 1.7 2.8 1012.7
20:47 14 11.9 87 335 1.7 2.8 1012.8
20:57 14 11.9 87 349 1.9 2.8 1012.7
21:07 14 12 88 322 1.9 2.5 1012.7
21:17 14.2 11.5 84 199 2.5 5 1013.2
21:27 13.9 11.6 86 231 3.6 5.6 1013.2
21:33 13.8 11.8 88 197 4.7 6.4 1013.4
21:42 13.7 11.8 88 203 1.7 2.8 1013.4
21:53 13.6 11.8 89 190 1.4 2.8 1013.3
22:03 13.6 11.8 89 222 1.7 2.8 1013.4
22:13 13.6 12 90 195 1.7 2.8 1013.2
22:23 13.6 12 90 191 1.9 3.3 1013.4
22:34 13.6 12 90 193 2.5 3.6 1013.5
22:43 13.6 12 90 193 3.3 4.7 1013.5
22:53 13.5 11.9 90 194 2.8 4.4 1013.5
23:03 13.4 11.8 90 191 3.9 5 1013.5
23:14 13.4 11.8 90 187 4.7 5.6 1013.4
23:24 13.4 12 91 184 5 6.1 1013.4
23:34 13.3 11.9 91 185 5 6.1 1013.3
23:44 13.2 11.8 91 197 4.7 5.8 1013.2
23:54 13.2 11.8 91 212 3.6 4.4 1013.2

DAY STATISTIC

2022-09-24
TEMPERATURE
AVERAGE
13.6
HIGH
20.0
14:07
LOW
8.0
05:36
PRESSURE
AVERAGE
1013.1
HIGH
1014.7
00:03
LOW
1012.0
17:16
DEWPOINT
AVERAGE
10.1
HIGH
13.4
16:38
LOW
6.0
05:26
HUMIDITY
AVERAGE
80
HIGH
91
23:24
LOW
60
14:07
WIND SPEED
AVERAGE
1.0
HIGH
5.0
23:24
WIND GUST
AVERAGE
1.8
HIGH
6.4
18:35
WIND DIRECTION
PREVAILING
S
26.8%
N
9.2
NE
2.8
E
9.9
SE
15.5
S
26.8
SW
8.5
W
2.8
NW
3.5
TEMPERATURE (°C)
LOW
8.0
HIGH
20.0
AVERAGE
13.6
PRESSURE (hpa)
LOW
1012.0
HIGH
1014.7
AVERAGE
1013.1
DEVICE